首页
METAR-TAF:

METAR-TAF

机场 :

雷克雅維克, 冰岛

纬度: 64-08N, 经度: 021-54W, 海拔: 54米

当前天气观测

该预报发布于20分钟前的22:00 UTC
风速1节,风向西转西南
温度 5°C
湿度 81%
气压 1001 hPa
能见度10公里或以上
少量云层高于900英尺
散云层高于1600英尺
阴天层高于3200英尺
小雨

METAR: BIRK 252200Z 24001KT 9999 -RA FEW009 SCT016 OVC032 05/02 Q1001

时间: 22:20 (22:20 UTC)

预报

该预报发布于2小时和21分钟前的19:59 UTC
预报有效从25日的 21点(UTC)到 26日的 21点(UTC)
风速8节,风向
能见度10公里或以上
少量云层高于2500英尺
多云层高于3000英尺
阴天层高于4000英尺
小雨
成为
从 26日的 12点(UTC)到 26日的 15点(UTC)
风速10节,风向东南

TAF: BIRK 251959Z 2521/2621 08008KT 9999 -RA FEW025 BKN030 OVC040 TX07/2615Z TN01/2606Z BECMG 2612/2615 14010KT

超过4000个机场的气象观测和天气预报(METAR&TAF报告)。

可查询的气象台以黄色和红色小点在地图上表示。

将鼠标移到小点上方,可查看气象台名称。

然后点击查看天气观测和预报。

如需切换地图:点击带黑十字的绿色按钮放大地图;点击带横线的绿色按钮缩小地图;或者点击绿色箭头查看邻近地区的地图。


METAR-TAF: